createdAt,value
2022-10-13T00:01:17.828Z,98903.59
2022-10-13T00:06:45.482Z,98897.78
2022-10-13T00:12:09.783Z,98903.28
2022-10-13T00:17:36.768Z,98893.78
2022-10-13T00:23:01.841Z,98909.50
2022-10-13T00:28:26.832Z,98924.75
2022-10-13T00:33:55.857Z,98919.69
2022-10-13T00:39:21.812Z,98908.66
2022-10-13T00:45:13.823Z,98915.31
2022-10-13T00:50:44.962Z,98913.34
2022-10-13T00:56:11.794Z,98912.34
2022-10-13T01:01:36.815Z,98911.63
2022-10-13T01:07:04.807Z,98908.25
2022-10-13T01:12:44.799Z,98914.31
2022-10-13T01:18:17.812Z,98913.88
2022-10-13T01:24:32.846Z,98908.25
2022-10-13T01:30:28.813Z,98912.91
2022-10-13T01:36:15.118Z,98901.28
2022-10-13T01:41:44.812Z,98905.25
2022-10-13T01:47:18.830Z,98894.38
2022-10-13T01:52:48.245Z,98890.81
2022-10-13T01:58:11.916Z,98873.84
2022-10-13T02:03:48.855Z,98873.13
2022-10-13T02:09:20.845Z,98870.03
2022-10-13T02:14:51.821Z,98873.97
2022-10-13T02:20:21.823Z,98873.25
2022-10-13T02:25:48.231Z,98869.84
2022-10-13T02:31:13.857Z,98859.41
2022-10-13T02:36:41.878Z,98856.25
2022-10-13T02:42:05.863Z,98854.69
2022-10-13T02:47:36.870Z,98857.38
2022-10-13T02:53:04.836Z,98867.25
2022-10-13T02:58:31.874Z,98855.66
2022-10-13T03:03:57.968Z,98855.53
2022-10-13T03:09:24.874Z,98852.13
2022-10-13T03:14:49.887Z,98853.13
2022-10-13T03:20:13.875Z,98845.34
2022-10-13T03:25:41.870Z,98850.84
2022-10-13T03:31:15.897Z,98850.25
2022-10-13T03:36:42.893Z,98839.78
2022-10-13T03:42:09.879Z,98841.50
2022-10-13T03:47:42.935Z,98846.03
2022-10-13T03:53:07.886Z,98847.28
2022-10-13T03:58:36.878Z,98841.06
2022-10-13T04:04:02.911Z,98844.31
2022-10-13T04:09:29.916Z,98842.34
2022-10-13T04:14:57.957Z,98843.06
2022-10-13T04:20:23.926Z,98836.72
2022-10-13T04:25:49.882Z,98827.53
2022-10-13T04:31:17.906Z,98835.59
2022-10-13T04:36:43.122Z,98822.00
2022-10-13T04:42:06.911Z,98808.75
2022-10-13T04:47:37.081Z,98805.06
2022-10-13T04:53:00.935Z,98814.94
2022-10-13T04:58:25.940Z,98804.91
2022-10-13T05:03:54.898Z,98811.16
2022-10-13T05:09:24.907Z,98811.00
2022-10-13T05:14:48.910Z,98819.63
2022-10-13T05:20:17.911Z,98826.88
2022-10-13T05:25:41.931Z,98829.56
2022-10-13T05:31:17.932Z,98835.13
2022-10-13T05:36:48.909Z,98831.56
2022-10-13T05:42:14.396Z,98829.75
2022-10-13T05:47:44.928Z,98832.44
2022-10-13T05:53:12.970Z,98831.56
2022-10-13T05:58:37.944Z,98833.41
2022-10-13T06:04:06.258Z,98837.66
2022-10-13T06:09:32.926Z,98835.41
2022-10-13T06:15:17.005Z,98831.16
2022-10-13T06:20:41.941Z,98837.66
2022-10-13T06:26:10.002Z,98833.16
2022-10-13T06:31:34.991Z,98836.56
2022-10-13T06:36:58.981Z,98841.81
2022-10-13T06:42:27.955Z,98844.06
2022-10-13T06:48:01.963Z,98843.19
2022-10-13T06:53:26.953Z,98846.72
2022-10-13T06:58:55.982Z,98835.94
2022-10-13T07:04:20.987Z,98825.13
2022-10-13T07:09:48.458Z,98825.66
2022-10-13T07:15:17.180Z,98813.72
2022-10-13T07:20:41.982Z,98818.22
2022-10-13T07:26:08.083Z,98820.59
2022-10-13T07:31:36.016Z,98803.06
2022-10-13T07:37:00.998Z,98807.38
2022-10-13T07:42:26.036Z,98804.16
2022-10-13T07:47:54.049Z,98790.88
2022-10-13T07:53:17.988Z,98789.31
2022-10-13T07:58:43.021Z,98780.19
2022-10-13T08:04:11.004Z,98776.94
2022-10-13T08:09:36.049Z,98767.28
2022-10-13T08:15:03.470Z,98771.91
2022-10-13T08:20:41.457Z,98751.44
2022-10-13T08:26:09.053Z,98756.19
2022-10-13T08:31:34.173Z,98748.69
2022-10-13T08:37:03.063Z,98751.63
2022-10-13T08:42:34.033Z,98740.34
2022-10-13T08:48:10.378Z,98744.59
2022-10-13T08:53:41.092Z,98735.16
2022-10-13T08:59:08.028Z,98721.00
2022-10-13T09:04:48.024Z,98715.41
2022-10-13T09:10:17.043Z,98707.81
2022-10-13T09:15:42.290Z,98711.81
2022-10-13T09:21:27.084Z,98699.81
2022-10-13T09:26:56.081Z,98709.44
2022-10-13T09:32:25.054Z,98713.84
2022-10-13T09:37:53.063Z,98711.44
2022-10-13T09:43:37.075Z,98707.38
2022-10-13T09:49:13.362Z,98706.19
2022-10-13T09:54:48.100Z,98707.47
2022-10-13T10:00:28.141Z,98692.00
2022-10-13T10:05:59.134Z,98690.97
2022-10-13T10:11:28.071Z,98685.84
2022-10-13T10:17:03.145Z,98686.81
2022-10-13T10:22:36.097Z,98675.09
2022-10-13T10:28:15.457Z,98680.09
2022-10-13T10:33:52.110Z,98672.47
2022-10-13T10:39:28.125Z,98662.59
2022-10-13T10:44:57.118Z,98655.31
2022-10-13T10:50:28.144Z,98645.41
2022-10-13T10:56:02.127Z,98640.22
2022-10-13T11:01:41.136Z,98626.41
2022-10-13T11:07:10.594Z,98622.41
2022-10-13T11:12:54.119Z,98611.72
2022-10-13T11:19:12.127Z,98617.69
2022-10-13T11:25:06.338Z,98613.38
2022-10-13T11:31:12.126Z,98596.53
2022-10-13T11:36:45.132Z,98584.84
2022-10-13T11:42:22.371Z,98573.06
2022-10-13T11:48:04.228Z,98568.03
2022-10-13T11:53:48.288Z,98569.69
2022-10-13T11:59:30.265Z,98572.56
2022-10-13T12:04:56.165Z,98565.63
2022-10-13T12:10:28.182Z,98558.81
2022-10-13T12:15:59.191Z,98553.00
2022-10-13T12:21:27.182Z,98539.09
2022-10-13T12:26:51.158Z,98526.13
2022-10-13T12:32:30.172Z,98529.91
2022-10-13T12:37:55.186Z,98532.16
2022-10-13T12:43:26.189Z,98520.69
2022-10-13T12:49:00.211Z,98509.16
2022-10-13T12:54:27.202Z,98511.94
2022-10-13T12:59:53.191Z,98505.34
2022-10-13T13:05:51.570Z,98501.06
2022-10-13T13:11:31.226Z,98494.44
2022-10-13T13:17:38.562Z,98493.63
2022-10-13T13:23:08.210Z,98489.44
2022-10-13T13:28:33.269Z,98491.06
2022-10-13T13:34:02.256Z,98485.53
2022-10-13T13:39:31.204Z,98475.94
2022-10-13T13:44:56.202Z,98475.06
2022-10-13T13:50:29.201Z,98470.84
2022-10-13T13:55:57.203Z,98471.53
2022-10-13T14:01:22.541Z,98470.72
2022-10-13T14:06:47.219Z,98474.16
2022-10-13T14:12:14.235Z,98456.34
2022-10-13T14:17:39.234Z,98455.22
2022-10-13T14:23:03.212Z,98445.53
2022-10-13T14:28:31.299Z,98440.56
2022-10-13T14:33:55.253Z,98449.28
2022-10-13T14:39:25.245Z,98461.38
2022-10-13T14:44:52.221Z,98460.00
2022-10-13T14:50:18.255Z,98466.59
2022-10-13T14:55:47.408Z,98457.97
2022-10-13T15:01:16.244Z,98467.03
2022-10-13T15:06:41.250Z,98469.91
2022-10-13T15:12:06.307Z,98470.41
2022-10-13T15:17:34.293Z,98472.97
2022-10-13T15:23:01.337Z,98468.63
2022-10-13T15:28:25.347Z,98476.44
2022-10-13T15:33:55.288Z,98472.72
2022-10-13T15:39:21.284Z,98474.91
2022-10-13T15:50:36.306Z,98473.34
2022-10-13T15:56:01.279Z,98482.78
2022-10-13T16:01:26.298Z,98483.56
2022-10-13T16:06:54.282Z,98483.81
2022-10-13T16:12:18.938Z,98483.03
2022-10-13T16:17:45.460Z,98499.84
2022-10-13T16:23:12.319Z,98493.31
2022-10-13T16:28:37.344Z,98483.38
2022-10-13T16:34:02.302Z,98492.94
2022-10-13T16:39:31.318Z,98487.88
2022-10-13T16:44:55.390Z,98497.69
2022-10-13T16:50:20.739Z,98486.94
2022-10-13T16:55:47.323Z,98481.50
2022-10-13T17:01:17.871Z,98477.81
2022-10-13T17:06:47.019Z,98476.34
2022-10-13T17:12:15.316Z,98491.25
2022-10-13T17:17:41.350Z,98480.63
2022-10-13T17:23:22.625Z,98477.59
2022-10-13T17:28:53.467Z,98493.56
2022-10-13T17:34:18.341Z,98492.59
2022-10-13T17:39:43.454Z,98493.34
2022-10-13T17:45:10.357Z,98493.03
2022-10-13T17:50:36.407Z,98502.25
2022-10-13T17:56:01.360Z,98499.41
2022-10-13T18:01:32.489Z,98500.25
2022-10-13T18:06:57.411Z,98498.94
2022-10-13T18:12:23.356Z,98496.03
2022-10-13T18:17:51.379Z,98493.69
2022-10-13T18:23:45.455Z,98500.69
2022-10-13T18:29:09.374Z,98494.28
2022-10-13T18:34:39.520Z,98492.78
2022-10-13T18:40:06.387Z,98490.41
2022-10-13T18:45:31.452Z,98498.38
2022-10-13T18:50:59.738Z,98498.72
2022-10-13T18:56:41.622Z,98494.53
2022-10-13T19:02:08.389Z,98489.28
2022-10-13T19:07:39.073Z,98483.38
2022-10-13T19:13:04.457Z,98483.25
2022-10-13T19:18:29.577Z,98473.84
2022-10-13T19:23:58.459Z,98467.94
2022-10-13T19:29:23.409Z,98477.94
2022-10-13T19:34:48.952Z,98486.09
2022-10-13T19:40:17.405Z,98483.94
2022-10-13T19:45:48.426Z,98476.88
2022-10-13T19:51:18.569Z,98460.03
2022-10-13T19:56:49.537Z,98468.63
2022-10-13T20:02:14.402Z,98460.38
2022-10-13T20:07:39.721Z,98461.19
2022-10-13T20:13:08.731Z,98465.28
2022-10-13T20:18:34.480Z,98463.78
2022-10-13T20:24:00.445Z,98461.41
2022-10-13T20:29:34.410Z,98457.88
2022-10-13T20:34:59.478Z,98461.94
2022-10-13T20:40:24.431Z,98475.59
2022-10-13T20:45:52.462Z,98467.69
2022-10-13T20:51:17.439Z,98463.47
2022-10-13T20:56:42.457Z,98472.69
2022-10-13T21:02:09.437Z,98474.75
2022-10-13T21:07:35.463Z,98481.16
2022-10-13T21:12:59.477Z,98479.97
2022-10-13T21:18:27.465Z,98485.19
2022-10-13T21:23:52.469Z,98494.31
2022-10-13T21:29:17.514Z,98480.63
2022-10-13T21:34:44.604Z,98476.09
2022-10-13T21:40:09.475Z,98467.63
2022-10-13T21:45:33.492Z,98476.75
2022-10-13T21:51:01.471Z,98476.25
2022-10-13T21:56:27.505Z,98480.13
2022-10-13T22:01:53.525Z,98467.13
2022-10-13T22:07:20.834Z,98466.81
2022-10-13T22:12:45.499Z,98458.88
2022-10-13T22:18:09.502Z,98460.56
2022-10-13T22:23:37.507Z,98456.84
2022-10-13T22:29:01.594Z,98460.22
2022-10-13T22:34:27.698Z,98452.81
2022-10-13T22:39:54.512Z,98438.47
2022-10-13T22:45:19.540Z,98443.69
2022-10-13T22:50:43.648Z,98430.19
2022-10-13T22:56:15.553Z,98425.81
2022-10-13T23:01:40.531Z,98435.25
2022-10-13T23:07:05.525Z,98435.59
2022-10-13T23:12:32.527Z,98429.34
2022-10-13T23:17:57.624Z,98433.38
2022-10-13T23:23:21.546Z,98425.47
2022-10-13T23:28:49.602Z,98430.03
2022-10-13T23:34:14.586Z,98434.06
2022-10-13T23:39:39.561Z,98421.78
2022-10-13T23:45:06.551Z,98435.59
2022-10-13T23:50:31.552Z,98441.31
2022-10-13T23:55:56.560Z,98437.28
